Home PIREPS Pireps

Flight BEL113

  • Submitted By: Jacques Stielle
  • Departure Airport: Ninoy Aquino International Airport (NAIA) (RPLL)
  • Arrival Airport: Kaohsiung Intl (RCKH)
  • Aircraft: A319-111 (OO-SSE)
  • Flight Time: 01.48
  • Date Submitted: 09/09/2017
  • Route: CAB DIPID PAYAS LAO KAPOH AGVAR POTIB HCN
  • Status: Accepted
Flight Details
Gross Revenue:
(115 load / € 0.00 per unit
€ 0.00
Fuel Cost:
(5823 fuel used @ 0 / unit)
€ 0.00

Additional Log Information:

View Log

Aircraft Used in flight is PMDG 737-800NGX PMDG House Winglets
15:31 Brakes are On
15:32 Brakes are Released
15:32 In Air Refuel Suspected
15:44 Brakes are On
15:46 Brakes are Released
15:47 You Took off @ 159 Knots and Flaps at Position 3
Departure Weather
RPLL 091300Z 13005KT 070V180 9999 FEW023CB FEW025 30/24 Q1008 NOSIG RMK A2977 CB NW W/ OCNL LTGrn
15:47 You are Airborne and your Navigation Lights are off
15:48 Landing Gear Up @ 166 Knots and 450 Feet
15:50 Below 10000 feet you are not allowed to go over 250 knots
15:53 Above FL100 you need to switch of the landing lights
15:56 Above FL100 you need to switch of the landing lights
15:56 Above FL100 you need to switch of the landing lights
16:48 Paused
16:48 Unpaused
16:54 Paused
16:54 Unpaused
16:55 Paused
16:55 Unpaused
16:56 Paused
16:56 Unpaused
17:08 Landing Gear Down @ 180 Knots and 2910 Feet
17:13 You Landed @ 138 Knots and with -200 Vertical Speed
Arrival Weather
RCKH 091500Z 22004KT 190V250 9999 FEW016 SCT120 29/24 Q1011 NOSIG RMK A2988rn
17:20 Brakes are On
17:21 Paused
17:21 Brussels Bel-Track1.0.1.2

Route Map

Corporate About Us Our Team Vacancies Information Fleet Route Network Rules and Regulations Operations Flight Schedules Event Center Tours Partners IVAO Vatsim Acars dev FSCB

fb Users Online No pilots online!
0 Pilot(s) and 127 Guest(s) Online
CMS by phpVMS - Design by Crazycreatives.com - Copyright © 2018 - Brussels Airlines Virtual